XBR weather

Brockville - Thousand Islands Regional Tackaberry Airport
Brockville, Ontario, Canada

Public forecast

Using degrees Celsius for public forecast. Weather courtesy of forecast.io.

METAR (pilot weather report)

Closest report is Wheeler Sack Army Air Field, 35.1 nm (65.0 km) S. Retrieved 2019/03/23 05:56 UTC (8 minutes ago):

KGTB 230556Z 32007KT 4SM -SN BKN004 BKN013 BKN018 OVC027 M04/M07 A2965 RMK AO2A VIS 1 5/8 RWY15 VIS 2 3/4 RWY33 CIG 004V006 SLP049 P0000 60000 4/003 T10441067 11028 21044 52019 $

TAF (pilot weather forecast)

Closest forecast is Wheeler Sack Army Air Field, 35.1 nm (65.0 km) S. Retrieved 2019/03/23 01:39 UTC (4 hours ago):

TAF KGTB 230100Z 2301/2407 31012G18KT 0800 SN OVC004 620059 510055 QNH2941INS TEMPO 2301/2309 0600 SN OVC006 620069 TEMPO 2309/2312 3200 -SN SCT005 OVC010 620105 BECMG 2312/2313 30012G18KT 4800 -SN SCT005 BKN012 BKN025 620124 QNH2979INS BECMG 2313/2314 29012G18KT 9999 NSW SCT025 QNH2991INS BECMG 2323/2324 24009KT 9999 SKC QNH3010INS TX00/2320Z TNM07/2311Z